Cotter, AR

2:45 PM CST on January 22, 2017 (GMT -0600)
ME6956 | | Change Station
Active Advisory: Lake Wind Advisory

Elev 1115 ft 36.26 °N, 92.49 °W | Updated 18 minutes ago

Rain
Rain
53.0 °F
Feels Like 53.0 °F
N
2.0
Wind Variable Wind from NW
Gusts 9.0 mph

Today
High -- | Low -- °F
--% Chance of Precip.
Yesterday
High -- | Low -- °F
Precip. -- in
Pressure 29.44 in
Visibility 8.0 miles
Clouds Mostly Cloudy 1000 ft
Overcast 1700 ft
Dew Point 51 °F
Humidity 92%
Rainfall 0.26 in
Snow Depth Not available.
7:17 AM 5:26 PM
Waning Crescent, 24% visible
METAR KFLP 222035Z AUTO 35011G19KT 8SM BKN010 OVC017 10/07 A2944 RMK AO1
Pressure 29.44 in
Visibility 8.0 miles
Clouds Mostly Cloudy 1000 ft
Overcast 1700 ft
Dew Point 51 °F
Humidity 92%
Rainfall 0.26 in
Snow Depth Not available.
7:17 AM 5:26 PM
Waning Crescent, 24% visible
METAR KFLP 222035Z AUTO 35011G19KT 8SM BKN010 OVC017 10/07 A2944 RMK AO1

Get Your Daily Forecast Email!

Thanks for signing up!

Be on the lookout for a verification email in your inbox.

You'll start receiving the daily forecast at 8 AM.

×

10-Day Weather Forecast

Almanac

Astronomy

Jan. 22, 2017 Rise Set
Actual Time
Civil Twilight
Nautical Twilight
Astronomical Twilight
Moon
Length of Visible Light
Length of Day
Tomorrow will be .
, % of the Moon is Illuminated

Today's Extremes

State Highs State Lows

Community

WunderPhotos

Upload Photos

1,962,540 photos uploaded!

WunderBlog® & News

Nearby

Air Quality

  Air Quality AQ Index Pollutant
Not available.

Snow Depth

Station Depth Elevation

Earthquake Activity

City Distance Mag. Time & Date
Minimum magnitude displayed is 2.5.

Coastal Water Temperatures

Place Temperature

Stations

Nearby Weather Stations

Station Location Temp. Windchill Dew Point Humidity Wind Precip. Elev Updated Type
                   

Watches & Warnings

Lake Wind Advisory
Issued: 2:10 PM CST Jan. 22, 2017 – National Weather Service

... Lake Wind Advisory remains in effect until 3 am CST Monday...

* event... gusty winds are expected.

* Areas affected... a large part of Arkansas.

* Timing... the strongest winds will be during the evening hours.

* Winds... winds of 15 to 25 mph are likely... with gusts to 35
mph.

* Impacts... winds will cause rough conditions on area bodies of
water.

Precautionary/preparedness actions...

A lake Wind Advisory indicates that winds will cause rough chop
on area lakes. Small boats will be especially prone to capsizing.



56